EZY180 EGKK-LPPT
Flight info
| Callsign | EZY180 |
|---|---|
| Flight time | N/A |
| Altitude | 35000 |
| Route | IMVUR N63 SAM M195 LORKU DCT POZOF/N0447F390 DCT BALDA DCT ABUPI DCT XAMAX |
| Aircraft | A20N/M-SDE2E3FGHIRWXY/LB1 |
Departure
| Time | 2026-04-17 07:01 |
|---|---|
| Airport | London Gatwick Airport (EGKK) |
Arrival
| Time | N/A |
|---|---|
| Airport | Lisbon Humberto Delgado Airport (LPPT) |
| Time | Latitude | Longitude | Altitude | Speed | Heading |
|---|---|---|---|---|---|
| 2026-04-17 06:58 | 51.14634 | -0.20347 | 212 ft | 0 kts | 77° |
| 2026-04-17 06:59 | 51.14672 | -0.20068 | 214 ft | 59 kts | 78° |
| 2026-04-17 07:00 | 51.14804 | -0.19099 | 218 ft | 121 kts | 77° |
| 2026-04-17 07:00 | 51.15029 | -0.17507 | 223 ft | 170 kts | 77° |
| 2026-04-17 07:00 | 51.15309 | -0.15547 | 412 ft | 192 kts | 77° |
| 2026-04-17 07:00 | 51.15603 | -0.13359 | 589 ft | 211 kts | 78° |
| 2026-04-17 07:01 | 51.15916 | -0.11004 | 898 ft | 222 kts | 78° |
| 2026-04-17 07:01 | 51.16243 | -0.08621 | 1377 ft | 224 kts | 76° |
| 2026-04-17 07:01 | 51.16831 | -0.06376 | 1841 ft | 226 kts | 50° |
| 2026-04-17 07:01 | 51.18129 | -0.05041 | 2254 ft | 227 kts | 10° |
| 2026-04-17 07:02 | 51.19694 | -0.05168 | 2700 ft | 228 kts | 344° |
| 2026-04-17 07:02 | 51.21137 | -0.06280 | 2969 ft | 237 kts | 321° |
| 2026-04-17 07:02 | 51.22219 | -0.08360 | 3014 ft | 253 kts | 295° |
| 2026-04-17 07:02 | 51.22598 | -0.11070 | 3164 ft | 260 kts | 269° |
| 2026-04-17 07:03 | 51.22387 | -0.13939 | 3561 ft | 262 kts | 260° |
| 2026-04-17 07:03 | 51.22161 | -0.15840 | 3831 ft | 263 kts | 259° |
| 2026-04-17 07:03 | 51.21685 | -0.19654 | 3997 ft | 262 kts | 259° |
| 2026-04-17 07:03 | 51.21332 | -0.22534 | 4000 ft | 263 kts | 259° |
| 2026-04-17 07:04 | 51.20988 | -0.25409 | 3995 ft | 263 kts | 259° |
| 2026-04-17 07:04 | 51.20650 | -0.28271 | 4005 ft | 263 kts | 259° |
| 2026-04-17 07:04 | 51.20313 | -0.31145 | 4005 ft | 263 kts | 259° |
| 2026-04-17 07:04 | 51.20090 | -0.33047 | 4003 ft | 263 kts | 259° |
| 2026-04-17 07:05 | 51.19609 | -0.36863 | 4000 ft | 265 kts | 258° |
| 2026-04-17 07:05 | 51.19236 | -0.39740 | 4004 ft | 264 kts | 258° |
| 2026-04-17 07:05 | 51.18983 | -0.41680 | 4002 ft | 264 kts | 258° |
| 2026-04-17 07:05 | 51.18614 | -0.44506 | 4001 ft | 264 kts | 258° |
| 2026-04-17 07:06 | 51.18239 | -0.47369 | 4000 ft | 263 kts | 258° |
| 2026-04-17 07:06 | 51.17864 | -0.50231 | 3998 ft | 263 kts | 258° |
| 2026-04-17 07:06 | 51.17446 | -0.53076 | 4001 ft | 263 kts | 254° |
| 2026-04-17 07:06 | 51.16861 | -0.55854 | 4220 ft | 265 kts | 249° |
| 2026-04-17 07:07 | 51.16163 | -0.58595 | 5022 ft | 267 kts | 247° |
| 2026-04-17 07:07 | 51.15430 | -0.61281 | 6037 ft | 268 kts | 246° |
| 2026-04-17 07:07 | 51.14668 | -0.64014 | 6979 ft | 271 kts | 246° |
| 2026-04-17 07:07 | 51.13899 | -0.66781 | 7871 ft | 275 kts | 246° |
| 2026-04-17 07:08 | 51.13126 | -0.69597 | 8735 ft | 278 kts | 246° |
| 2026-04-17 07:08 | 51.12351 | -0.72449 | 9578 ft | 282 kts | 247° |
| 2026-04-17 07:08 | 51.11581 | -0.75305 | 10345 ft | 289 kts | 247° |
| 2026-04-17 07:08 | 51.10762 | -0.78356 | 10738 ft | 310 kts | 247° |
| 2026-04-17 07:09 | 51.09885 | -0.81629 | 11074 ft | 332 kts | 247° |
| 2026-04-17 07:09 | 51.08950 | -0.85116 | 11446 ft | 350 kts | 247° |
| 2026-04-17 07:09 | 51.07981 | -0.88722 | 12055 ft | 359 kts | 247° |
| 2026-04-17 07:09 | 51.06988 | -0.92410 | 12782 ft | 364 kts | 247° |
| 2026-04-17 07:10 | 51.05998 | -0.96080 | 13518 ft | 369 kts | 247° |
| 2026-04-17 07:10 | 51.04974 | -0.99865 | 14247 ft | 373 kts | 247° |
| 2026-04-17 07:10 | 51.03942 | -1.03674 | 14963 ft | 377 kts | 247° |
| 2026-04-17 07:10 | 51.02891 | -1.07548 | 15684 ft | 381 kts | 246° |
| 2026-04-17 07:11 | 51.01833 | -1.11439 | 16367 ft | 385 kts | 246° |
| 2026-04-17 07:11 | 51.00778 | -1.15311 | 17017 ft | 389 kts | 246° |
| 2026-04-17 07:11 | 50.99696 | -1.19281 | 17645 ft | 393 kts | 246° |
| 2026-04-17 07:11 | 50.98601 | -1.23289 | 18277 ft | 397 kts | 246° |
| 2026-04-17 07:12 | 50.97470 | -1.27309 | 18893 ft | 400 kts | 244° |
| 2026-04-17 07:12 | 50.96090 | -1.31173 | 19478 ft | 404 kts | 237° |
| 2026-04-17 07:12 | 50.94360 | -1.34709 | 20047 ft | 407 kts | 227° |
| 2026-04-17 07:12 | 50.92270 | -1.37766 | 20600 ft | 411 kts | 219° |
| 2026-04-17 07:13 | 50.89974 | -1.40497 | 21137 ft | 414 kts | 215° |
| 2026-04-17 07:13 | 50.87603 | -1.43049 | 21664 ft | 418 kts | 213° |
| 2026-04-17 07:13 | 50.85148 | -1.45562 | 22174 ft | 421 kts | 213° |
| 2026-04-17 07:13 | 50.82662 | -1.48062 | 22687 ft | 424 kts | 212° |
| 2026-04-17 07:14 | 50.80157 | -1.50584 | 23152 ft | 427 kts | 213° |
| 2026-04-17 07:14 | 50.77648 | -1.53128 | 23618 ft | 431 kts | 213° |
| 2026-04-17 07:14 | 50.75120 | -1.55712 | 24083 ft | 433 kts | 213° |
| 2026-04-17 07:14 | 50.72609 | -1.58291 | 24504 ft | 436 kts | 213° |
| 2026-04-17 07:15 | 50.70058 | -1.60920 | 24922 ft | 439 kts | 213° |
| 2026-04-17 07:15 | 50.67490 | -1.63568 | 25327 ft | 442 kts | 213° |
| 2026-04-17 07:15 | 50.64910 | -1.66225 | 25720 ft | 444 kts | 213° |
| 2026-04-17 07:15 | 50.62309 | -1.68901 | 26100 ft | 447 kts | 213° |
| 2026-04-17 07:16 | 50.59694 | -1.71588 | 26471 ft | 450 kts | 213° |
| 2026-04-17 07:16 | 50.57056 | -1.74292 | 26828 ft | 452 kts | 213° |
| 2026-04-17 07:16 | 50.54412 | -1.76999 | 27173 ft | 455 kts | 213° |
| 2026-04-17 07:16 | 50.51751 | -1.79719 | 27506 ft | 457 kts | 213° |
| 2026-04-17 07:17 | 50.49110 | -1.82414 | 27824 ft | 459 kts | 213° |